PWSweather.com
Personal Weather Stations
Station Observations
BLACKWELL
Blackwell, AlfretonGB DE55

BlackwellAlfretonGB DE55

Lat: 53.12076, Lon: -1.354978

Elevation: 410

Station Type: Vantage Pro

High Low Average
Temperature 51.4°F10.8°C 40.6°F4.8°C 44.9°F7.2°C
Dew Point 47.3°F8.5°C 39.4°F4.1°C 42.5°F5.8°C
Winds Calm Calm Calm Calm Calm NECalm NE
Wind Gusts 4.0 mph6.4 kmh -- --
Humidity 96% 81% 92%
Pressure 29.88 in1011.9 mb 29.71 in1006.1 mb -
Precipitation 0.11 in2.8 mm - -
Hour Temp Dew Point Humidity Winds Wind Gusts Pressure Precip Precip Rate Daily Precip Total
12:32 AM 41.2°F5.1°C 39.7°F4.3°C 95% Calm Calm -- 29.71 in1006.1 mb 0.00 in0.0 mm 0.00 in0.0 mm 0.00 in0.0 mm
01:32 AM 40.6°F4.8°C 39.4°F4.1°C 95% Calm Calm -- 29.72 in1006.4 mb 0.00 in0.0 mm 0.00 in0.0 mm 0.00 in0.0 mm
02:32 AM 40.6°F4.8°C 39.6°F4.2°C 96% Calm Calm 1.0 mph1.6 kmh 29.73 in1006.8 mb 0.00 in0.0 mm 0.00 in0.0 mm 0.00 in0.0 mm
03:32 AM 41.2°F5.1°C 40.1°F4.5°C 96% Calm Calm -- 29.74 in1007.1 mb 0.00 in0.0 mm 0.00 in0.0 mm 0.00 in0.0 mm
04:32 AM 40.8°F4.9°C 39.7°F4.3°C 96% Calm Calm -- 29.75 in1007.5 mb 0.03 in0.8 mm 0.00 in0.0 mm 0.03 in0.8 mm
05:32 AM 40.8°F4.9°C 39.7°F4.3°C 96% Calm Calm -- 29.76 in1007.8 mb 0.02 in0.5 mm 0.00 in0.0 mm 0.05 in1.3 mm
06:32 AM 41.2°F5.1°C 40.1°F4.5°C 96% Calm Calm -- 29.77 in1008.1 mb 0.03 in0.8 mm 0.00 in0.0 mm 0.08 in2.0 mm
07:32 AM 41.5°F5.3°C 40.5°F4.7°C 96% Calm Calm -- 29.78 in1008.5 mb 0.02 in0.5 mm 0.00 in0.0 mm 0.09 in2.3 mm
08:32 AM 42.1°F5.6°C 41.0°F5.0°C 96% Calm Calm -- 29.80 in1009.1 mb 0.01 in0.3 mm 0.00 in0.0 mm 0.10 in2.5 mm
09:32 AM 43.7°F6.5°C 42.6°F5.9°C 96% Calm Calm -- 29.80 in1009.1 mb 0.00 in0.0 mm 0.00 in0.0 mm 0.10 in2.5 mm
10:32 AM 46.2°F7.9°C 44.2°F6.8°C 93% Calm Calm -- 29.81 in1009.5 mb 0.00 in0.0 mm 0.00 in0.0 mm 0.10 in2.5 mm
11:32 AM 51.4°F10.8°C 47.3°F8.5°C 86% Calm Calm 1.0 mph1.6 kmh 29.80 in1009.1 mb 0.00 in0.0 mm 0.00 in0.0 mm 0.10 in2.5 mm
12:32 PM 50.7°F10.4°C 45.1°F7.3°C 81% Calm Calm 4.0 mph6.4 kmh 29.80 in1009.1 mb 0.00 in0.0 mm 0.00 in0.0 mm 0.10 in2.5 mm
01:32 PM 50.7°F10.4°C 46.4°F8.0°C 85% Calm Calm 1.0 mph1.6 kmh 29.80 in1009.1 mb 0.00 in0.0 mm 0.00 in0.0 mm 0.10 in2.5 mm
02:32 PM 50.2°F10.1°C 45.0°F7.2°C 82% Calm Calm -- 29.81 in1009.5 mb 0.00 in0.0 mm 0.00 in0.0 mm 0.10 in2.5 mm
03:32 PM 49.5°F9.7°C 45.9°F7.7°C 87% Calm Calm 3.0 mph4.8 kmh 29.82 in1009.8 mb 0.01 in0.3 mm 0.00 in0.0 mm 0.11 in2.8 mm
04:32 PM 49.3°F9.6°C 45.3°F7.4°C 86% Calm Calm -- 29.81 in1009.5 mb 0.00 in0.0 mm 0.00 in0.0 mm 0.11 in2.8 mm
05:32 PM 47.8°F8.8°C 44.8°F7.1°C 89% Calm Calm -- 29.81 in1009.5 mb 0.00 in0.0 mm 0.00 in0.0 mm 0.11 in2.8 mm
06:32 PM 46.8°F8.2°C 43.5°F6.4°C 88% Calm Calm -- 29.82 in1009.8 mb 0.00 in0.0 mm 0.00 in0.0 mm 0.11 in2.8 mm
07:32 PM 45.9°F7.7°C 42.8°F6.0°C 89% Calm Calm -- 29.84 in1010.5 mb 0.00 in0.0 mm 0.00 in0.0 mm 0.11 in2.8 mm
08:32 PM 45.0°F7.2°C 42.8°F6.0°C 92% Calm Calm 1.0 mph1.6 kmh 29.85 in1010.8 mb 0.00 in0.0 mm 0.00 in0.0 mm 0.11 in2.8 mm
09:32 PM 43.7°F6.5°C 41.7°F5.4°C 93% Calm Calm -- 29.86 in1011.2 mb 0.00 in0.0 mm 0.00 in0.0 mm 0.11 in2.8 mm
10:32 PM 43.2°F6.2°C 41.5°F5.3°C 94% Calm Calm -- 29.87 in1011.5 mb 0.00 in0.0 mm 0.00 in0.0 mm 0.11 in2.8 mm
11:32 PM 43.2°F6.2°C 41.7°F5.4°C 95% Calm Calm 1.0 mph1.6 kmh 29.88 in1011.9 mb 0.00 in0.0 mm 0.00 in0.0 mm 0.05 in1.3 mm